createdAt,value
2022-08-20T00:00:28.728Z,101714.38
2022-08-20T00:02:58.295Z,101709.31
2022-08-20T00:05:32.634Z,101716.78
2022-08-20T00:08:00.450Z,101708.94
2022-08-20T00:10:29.157Z,101709.72
2022-08-20T00:12:56.602Z,101713.69
2022-08-20T00:15:28.410Z,101714.03
2022-08-20T00:17:56.236Z,101715.25
2022-08-20T00:20:26.322Z,101707.81
2022-08-20T00:22:53.235Z,101707.00
2022-08-20T00:25:19.876Z,101705.06
2022-08-20T00:27:46.425Z,101702.28
2022-08-20T00:30:14.375Z,101699.94
2022-08-20T00:32:49.033Z,101698.38
2022-08-20T00:35:18.190Z,101709.09
2022-08-20T00:37:44.727Z,101707.53
2022-08-20T00:40:22.445Z,101710.63
2022-08-20T00:42:53.353Z,101709.88
2022-08-20T00:45:20.812Z,101710.63
2022-08-20T00:47:51.432Z,101712.19
2022-08-20T00:50:35.321Z,101711.00
2022-08-20T00:53:05.416Z,101715.75
2022-08-20T00:55:33.614Z,101719.63
2022-08-20T00:58:07.412Z,101718.06
2022-08-20T01:00:42.707Z,101713.34
2022-08-20T01:03:11.376Z,101708.16
2022-08-20T01:05:40.556Z,101710.94
2022-08-20T01:08:07.293Z,101699.88
2022-08-20T01:10:37.874Z,101706.19
2022-08-20T01:13:11.040Z,101703.84
2022-08-20T01:15:43.383Z,101706.25
2022-08-20T01:18:13.782Z,101713.41
2022-08-20T01:20:46.465Z,101712.63
2022-08-20T01:23:30.164Z,101711.06
2022-08-20T01:26:10.002Z,101714.25
2022-08-20T01:28:43.643Z,101728.84
2022-08-20T01:31:13.815Z,101727.28
2022-08-20T01:33:41.186Z,101717.84
2022-08-20T01:36:12.786Z,101723.03
2022-08-20T01:38:40.096Z,101716.00
2022-08-20T01:41:22.804Z,101718.00
2022-08-20T01:43:56.949Z,101723.16
2022-08-20T01:46:27.947Z,101722.44
2022-08-20T01:48:57.044Z,101714.16
2022-08-20T01:51:27.357Z,101715.38
2022-08-20T01:53:56.689Z,101715.44
2022-08-20T01:56:28.258Z,101720.97
2022-08-20T01:58:58.935Z,101730.88
2022-08-20T02:01:29.042Z,101728.97
2022-08-20T02:03:57.018Z,101727.84
2022-08-20T02:06:25.668Z,101727.47
2022-08-20T02:08:55.148Z,101731.41
2022-08-20T02:11:22.586Z,101725.53
2022-08-20T02:13:52.587Z,101723.22
2022-08-20T02:16:24.139Z,101723.22
2022-08-20T02:18:54.410Z,101722.78
2022-08-20T02:21:23.554Z,101727.53
2022-08-20T02:23:50.258Z,101732.28
2022-08-20T02:26:19.145Z,101741.38
2022-08-20T02:28:50.706Z,101731.56
2022-08-20T02:31:18.984Z,101731.56
2022-08-20T02:34:18.463Z,101730.78
2022-08-20T02:36:33.011Z,101731.19
2022-08-20T02:38:59.672Z,101728.03
2022-08-20T02:41:26.664Z,101733.53
2022-08-20T02:43:53.300Z,101735.94
2022-08-20T02:46:19.883Z,101739.47
2022-08-20T02:48:46.427Z,101737.94
2022-08-20T02:51:13.063Z,101730.06
2022-08-20T02:53:42.087Z,101731.69
2022-08-20T02:56:10.590Z,101728.16
2022-08-20T02:58:38.986Z,101722.28
2022-08-20T03:01:07.430Z,101717.94
2022-08-20T03:03:34.404Z,101727.44
2022-08-20T03:06:01.360Z,101733.72
2022-08-20T03:08:29.356Z,101727.44
2022-08-20T03:10:56.644Z,101736.88
2022-08-20T03:13:23.559Z,101721.94
2022-08-20T03:15:58.096Z,101734.19
2022-08-20T03:18:28.037Z,101730.63
2022-08-20T03:20:54.549Z,101732.25
2022-08-20T03:23:22.001Z,101733.81
2022-08-20T03:25:49.498Z,101727.50
2022-08-20T03:28:16.600Z,101735.00
2022-08-20T03:30:43.799Z,101737.00
2022-08-20T03:33:11.443Z,101738.63
2022-08-20T03:35:38.777Z,101739.41
2022-08-20T03:38:10.019Z,101737.84
2022-08-20T03:40:37.513Z,101739.41
2022-08-20T03:43:08.591Z,101739.81
2022-08-20T03:45:36.982Z,101745.31
2022-08-20T03:48:05.590Z,101741.78
2022-08-20T03:50:32.391Z,101746.53
2022-08-20T03:53:00.169Z,101740.66
2022-08-20T03:55:29.992Z,101757.63
2022-08-20T03:58:01.125Z,101748.19
2022-08-20T04:00:33.792Z,101752.59
2022-08-20T04:03:00.870Z,101752.22
2022-08-20T04:05:30.688Z,101747.13
2022-08-20T04:08:00.189Z,101749.16
2022-08-20T04:10:29.830Z,101738.22
2022-08-20T04:12:56.367Z,101746.94
2022-08-20T04:15:24.558Z,101749.34
2022-08-20T04:17:51.214Z,101753.28
2022-08-20T04:20:23.999Z,101754.53
2022-08-20T04:22:59.358Z,101749.78
2022-08-20T04:25:29.726Z,101762.81
2022-08-20T04:27:58.729Z,101762.03
2022-08-20T04:30:26.126Z,101762.03
2022-08-20T04:32:53.305Z,101763.22
2022-08-20T04:35:21.288Z,101773.91
2022-08-20T04:37:48.522Z,101775.84
2022-08-20T04:40:37.253Z,101769.16
2022-08-20T04:43:05.218Z,101774.66
2022-08-20T04:45:33.214Z,101780.19
2022-08-20T04:48:05.596Z,101784.13
2022-08-20T04:50:36.267Z,101786.88
2022-08-20T04:53:05.830Z,101792.03
2022-08-20T04:55:33.915Z,101790.88
2022-08-20T04:58:07.567Z,101797.22
2022-08-20T05:00:34.718Z,101798.38
2022-08-20T05:03:02.382Z,101795.63
2022-08-20T05:05:29.129Z,101798.78
2022-08-20T05:07:55.763Z,101798.44
2022-08-20T05:10:23.622Z,101796.09
2022-08-20T05:12:56.489Z,101800.84
2022-08-20T05:15:25.924Z,101804.00
2022-08-20T05:17:57.322Z,101804.41
2022-08-20T05:20:24.007Z,101812.69
2022-08-20T05:22:51.358Z,101809.50
2022-08-20T05:25:18.272Z,101798.53
2022-08-20T05:27:47.829Z,101800.91
2022-08-20T05:30:14.834Z,101811.94
2022-08-20T05:32:44.452Z,101815.91
2022-08-20T05:35:31.990Z,101818.28
2022-08-20T05:38:01.572Z,101817.97
2022-08-20T05:40:28.514Z,101823.13
2022-08-20T05:43:11.456Z,101820.72
2022-08-20T05:46:02.298Z,101823.06
2022-08-20T05:48:28.979Z,101829.34
2022-08-20T05:50:56.405Z,101823.47
2022-08-20T05:53:49.707Z,101824.69
2022-08-20T05:56:16.248Z,101831.75
2022-08-20T05:58:43.083Z,101828.63
2022-08-20T06:01:09.792Z,101833.31
2022-08-20T06:03:54.932Z,101826.19
2022-08-20T06:06:44.584Z,101838.38
2022-08-20T06:09:08.079Z,101837.19
2022-08-20T06:11:37.214Z,101841.84
2022-08-20T06:14:04.661Z,101846.53
2022-08-20T06:16:31.200Z,101843.34
2022-08-20T06:18:58.569Z,101843.28
2022-08-20T06:21:25.439Z,101845.22
2022-08-20T06:23:57.158Z,101836.88
2022-08-20T06:26:30.469Z,101833.69
2022-08-20T06:28:59.645Z,101833.63
2022-08-20T06:31:27.277Z,101841.44
2022-08-20T06:33:54.064Z,101834.25
2022-08-20T06:36:20.801Z,101841.63
2022-08-20T06:38:47.291Z,101844.72
2022-08-20T06:41:14.186Z,101841.06
2022-08-20T06:43:40.930Z,101847.25
2022-08-20T06:46:07.807Z,101836.56
2022-08-20T06:48:34.334Z,101845.44
2022-08-20T06:51:01.582Z,101843.69
2022-08-20T06:53:29.198Z,101850.25
2022-08-20T06:55:59.421Z,101851.25
2022-08-20T06:58:38.007Z,101847.09
2022-08-20T07:01:09.275Z,101849.38
2022-08-20T07:03:38.402Z,101846.50
2022-08-20T07:06:05.757Z,101855.00
2022-08-20T07:08:32.803Z,101864.06
2022-08-20T07:10:59.779Z,101857.63
2022-08-20T07:13:26.947Z,101853.22
2022-08-20T07:15:54.593Z,101859.44
2022-08-20T07:18:28.716Z,101858.53
2022-08-20T07:20:57.474Z,101859.22
2022-08-20T07:23:26.069Z,101862.69
2022-08-20T07:25:53.439Z,101854.56
2022-08-20T07:28:23.921Z,101861.72
2022-08-20T07:31:13.211Z,101870.00
2022-08-20T07:33:41.163Z,101868.38
2022-08-20T07:36:09.033Z,101868.81
2022-08-20T07:38:36.899Z,101873.63
2022-08-20T07:41:13.287Z,101867.38
2022-08-20T07:43:41.381Z,101872.41
2022-08-20T07:46:09.243Z,101877.94
2022-08-20T07:48:40.141Z,101877.53
2022-08-20T07:51:08.543Z,101884.28
2022-08-20T07:53:37.585Z,101879.88
2022-08-20T07:56:07.530Z,101882.63
2022-08-20T07:58:36.610Z,101885.31
2022-08-20T08:01:03.929Z,101878.59
2022-08-20T08:03:39.941Z,101888.81
2022-08-20T08:06:19.682Z,101890.78
2022-08-20T08:09:05.801Z,101890.41
2022-08-20T08:11:37.860Z,101900.25
2022-08-20T08:14:07.474Z,101891.13
2022-08-20T08:16:35.636Z,101897.34
2022-08-20T08:19:04.992Z,101897.72
2022-08-20T08:21:31.662Z,101895.38
2022-08-20T08:23:58.520Z,101893.75
2022-08-20T08:26:26.245Z,101893.81
2022-08-20T08:28:52.746Z,101888.38
2022-08-20T08:31:19.250Z,101894.59
2022-08-20T08:33:45.726Z,101892.31
2022-08-20T08:36:14.815Z,101893.44
2022-08-20T08:38:44.393Z,101895.38
2022-08-20T08:41:20.759Z,101899.06
2022-08-20T08:43:53.350Z,101903.38
2022-08-20T08:46:40.641Z,101902.50
2022-08-20T08:49:12.912Z,101906.00
2022-08-20T08:51:47.999Z,101895.31
2022-08-20T08:54:34.371Z,101902.41
2022-08-20T08:57:02.056Z,101916.13
2022-08-20T08:59:47.351Z,101913.72
2022-08-20T09:02:21.755Z,101918.44
2022-08-20T09:04:51.490Z,101920.75
2022-08-20T09:07:18.238Z,101919.97
2022-08-20T09:09:46.743Z,101919.97
2022-08-20T09:12:18.931Z,101916.44
2022-08-20T09:14:48.010Z,101910.19
2022-08-20T09:17:15.996Z,101908.28
2022-08-20T09:19:42.752Z,101920.47
2022-08-20T09:22:11.983Z,101919.22
2022-08-20T09:24:40.442Z,101930.25
2022-08-20T09:27:07.682Z,101923.50
2022-08-20T09:29:34.210Z,101923.03
2022-08-20T09:32:16.449Z,101918.66
2022-08-20T09:34:46.599Z,101914.75
2022-08-20T09:37:13.417Z,101913.94
2022-08-20T09:39:42.002Z,101914.66
2022-08-20T09:42:12.293Z,101923.31
2022-08-20T09:44:39.135Z,101922.13
2022-08-20T09:47:06.076Z,101921.25
2022-08-20T09:49:32.861Z,101920.75
2022-08-20T09:52:01.276Z,101917.16
2022-08-20T09:54:30.177Z,101922.59
2022-08-20T09:56:58.541Z,101921.06
2022-08-20T09:59:25.941Z,101913.19
2022-08-20T10:01:52.540Z,101919.84
2022-08-20T10:04:19.040Z,101915.78
2022-08-20T10:06:45.543Z,101924.38
2022-08-20T10:09:12.003Z,101927.63
2022-08-20T10:11:38.761Z,101923.69
2022-08-20T10:14:05.304Z,101920.84
2022-08-20T10:16:32.137Z,101923.88
2022-08-20T10:18:58.632Z,101923.47
2022-08-20T10:21:25.134Z,101914.66
2022-08-20T10:23:51.758Z,101918.84
2022-08-20T10:26:18.202Z,101918.38
2022-08-20T10:28:44.872Z,101919.56
2022-08-20T10:31:12.996Z,101930.19
2022-08-20T10:33:41.161Z,101931.31
2022-08-20T10:36:13.669Z,101929.25
2022-08-20T10:38:40.170Z,101925.28
2022-08-20T10:41:06.689Z,101921.66
2022-08-20T10:43:33.462Z,101923.56
2022-08-20T10:46:00.308Z,101926.19
2022-08-20T10:48:27.314Z,101924.53
2022-08-20T10:50:53.930Z,101916.94
2022-08-20T10:53:20.551Z,101919.63
2022-08-20T10:55:47.297Z,101927.75
2022-08-20T10:58:13.758Z,101915.41
2022-08-20T11:00:40.866Z,101918.06
2022-08-20T11:03:07.637Z,101916.34
2022-08-20T11:05:34.149Z,101922.94
2022-08-20T11:08:03.542Z,101925.00
2022-08-20T11:10:33.900Z,101925.50
2022-08-20T11:13:02.216Z,101929.50
2022-08-20T11:15:28.969Z,101920.41
2022-08-20T11:17:56.680Z,101917.81
2022-08-20T11:20:26.181Z,101924.50
2022-08-20T11:22:54.648Z,101923.19
2022-08-20T11:25:21.490Z,101925.09
2022-08-20T11:27:50.003Z,101915.47
2022-08-20T11:30:22.019Z,101923.88
2022-08-20T11:32:48.797Z,101929.44
2022-08-20T11:35:41.016Z,101921.13
2022-08-20T11:38:03.100Z,101925.78
2022-08-20T11:40:30.428Z,101920.00
2022-08-20T11:45:47.390Z,101914.88
2022-08-20T11:48:13.959Z,101920.78
2022-08-20T11:50:41.611Z,101918.50
2022-08-20T11:53:08.298Z,101923.34
2022-08-20T11:55:35.204Z,101916.25
2022-08-20T11:58:01.781Z,101918.50
2022-08-20T12:00:32.827Z,101918.50
2022-08-20T12:03:01.476Z,101926.81
2022-08-20T12:05:29.550Z,101922.94
2022-08-20T12:07:56.809Z,101917.91
2022-08-20T12:10:24.496Z,101925.94
2022-08-20T12:12:51.097Z,101916.69
2022-08-20T12:15:17.704Z,101916.34
2022-08-20T12:17:44.635Z,101916.53
2022-08-20T12:20:14.115Z,101914.34
2022-08-20T12:22:41.497Z,101904.25
2022-08-20T12:25:09.189Z,101905.28
2022-08-20T12:27:37.209Z,101899.22
2022-08-20T12:30:10.416Z,101904.81
2022-08-20T12:32:37.332Z,101901.75
2022-08-20T12:35:05.973Z,101909.09
2022-08-20T12:37:33.039Z,101917.75
2022-08-20T12:40:01.718Z,101910.25
2022-08-20T12:42:30.330Z,101912.81
2022-08-20T12:44:58.055Z,101906.03
2022-08-20T12:47:28.059Z,101900.16
2022-08-20T12:50:00.990Z,101898.59
2022-08-20T12:52:29.180Z,101902.25
2022-08-20T12:54:56.479Z,101909.00
2022-08-20T13:00:58.885Z,101905.91
2022-08-20T13:06:29.994Z,101902.91
2022-08-20T13:08:57.664Z,101904.88
2022-08-20T13:11:25.239Z,101899.66
2022-08-20T13:13:52.196Z,101900.78
2022-08-20T13:19:10.869Z,101904.69
2022-08-20T13:24:18.145Z,101908.81
2022-08-20T13:26:45.007Z,101898.31
2022-08-20T13:29:12.125Z,101895.88
2022-08-20T13:31:42.158Z,101897.84
2022-08-20T13:34:08.808Z,101899.09
2022-08-20T13:36:35.443Z,101892.84
2022-08-20T13:39:07.591Z,101901.94
2022-08-20T13:41:34.608Z,101901.53
2022-08-20T13:44:01.370Z,101895.97
2022-08-20T13:46:28.058Z,101900.84
2022-08-20T13:48:54.551Z,101893.63
2022-08-20T13:51:46.808Z,101893.19
2022-08-20T13:54:18.629Z,101890.00
2022-08-20T13:56:45.341Z,101881.69
2022-08-20T13:59:12.327Z,101881.22
2022-08-20T14:01:39.127Z,101885.56
2022-08-20T14:04:06.804Z,101883.66
2022-08-20T14:06:33.263Z,101886.41
2022-08-20T14:09:00.813Z,101880.88
2022-08-20T14:11:27.358Z,101885.22
2022-08-20T14:13:53.917Z,101888.34
2022-08-20T14:16:25.350Z,101878.34
2022-08-20T14:18:55.505Z,101871.91
2022-08-20T14:21:22.007Z,101876.03
2022-08-20T14:23:48.500Z,101877.88
2022-08-20T14:26:15.156Z,101884.97
2022-08-20T14:28:41.848Z,101888.97
2022-08-20T14:31:08.358Z,101880.72
2022-08-20T14:33:36.160Z,101876.13
2022-08-20T14:36:04.035Z,101869.94
2022-08-20T14:38:30.557Z,101876.59
2022-08-20T14:40:57.697Z,101870.38
2022-08-20T14:43:24.172Z,101877.47
2022-08-20T14:45:50.627Z,101872.72
2022-08-20T14:48:17.086Z,101877.13
2022-08-20T14:50:43.768Z,101871.56
2022-08-20T14:53:10.238Z,101881.47
2022-08-20T14:55:37.978Z,101879.91
2022-08-20T14:58:09.588Z,101879.25
2022-08-20T15:00:36.242Z,101881.75
2022-08-20T15:03:04.143Z,101878.22
2022-08-20T15:05:31.168Z,101874.69
2022-08-20T15:07:59.377Z,101870.94
2022-08-20T17:17:25.757Z,101910.53
2022-08-20T17:19:57.222Z,101910.47
2022-08-20T17:22:26.086Z,101917.22
2022-08-20T17:24:53.745Z,101916.44
2022-08-20T17:27:39.511Z,101914.19
2022-08-20T17:30:11.508Z,101913.41
2022-08-20T17:32:57.453Z,101905.78
2022-08-20T17:35:38.638Z,101912.66
2022-08-20T17:38:05.404Z,101917.03
2022-08-20T17:40:42.061Z,101918.81
2022-08-20T17:43:31.821Z,101914.88
2022-08-20T17:46:02.342Z,101911.50
2022-08-20T17:48:47.685Z,101918.16
2022-08-20T17:51:19.139Z,101912.81
2022-08-20T17:53:54.739Z,101909.34
2022-08-20T17:56:26.216Z,101918.94
2022-08-20T17:59:00.207Z,101920.78
2022-08-20T18:01:30.207Z,101918.94
2022-08-20T18:03:57.616Z,101917.91
2022-08-20T18:06:37.291Z,101920.06
2022-08-20T18:09:11.147Z,101917.78
2022-08-20T18:11:44.717Z,101919.19
2022-08-20T18:14:18.477Z,101918.13
2022-08-20T18:16:45.940Z,101921.06
2022-08-20T18:19:22.002Z,101923.50
2022-08-20T18:21:49.447Z,101922.78
2022-08-20T18:24:21.716Z,101928.47
2022-08-20T18:26:56.734Z,101926.66
2022-08-20T18:29:29.956Z,101931.09
2022-08-20T18:31:59.750Z,101930.84
2022-08-20T18:34:29.593Z,101931.75
2022-08-20T18:36:59.820Z,101928.34
2022-08-20T18:39:30.964Z,101931.97
2022-08-20T18:42:02.137Z,101935.66
2022-08-20T18:44:37.876Z,101929.03
2022-08-20T18:47:05.882Z,101933.94
2022-08-20T18:49:41.528Z,101943.06
2022-08-20T18:52:22.836Z,101938.53
2022-08-20T18:54:52.291Z,101943.72
2022-08-20T18:57:26.356Z,101945.41
2022-08-20T19:00:11.801Z,101940.00
2022-08-20T19:02:53.994Z,101938.13
2022-08-20T19:05:31.372Z,101943.78
2022-08-20T19:08:02.491Z,101942.69
2022-08-20T19:10:47.683Z,101941.19
2022-08-20T19:13:46.125Z,101931.84
2022-08-20T19:16:26.742Z,101934.31
2022-08-20T19:18:55.083Z,101938.41
2022-08-20T19:21:35.998Z,101941.22
2022-08-20T19:24:06.767Z,101943.22
2022-08-20T19:26:41.529Z,101942.94
2022-08-20T19:29:13.848Z,101940.28
2022-08-20T19:31:41.639Z,101941.13
2022-08-20T19:34:19.603Z,101939.25
2022-08-20T19:37:05.197Z,101938.50
2022-08-20T19:39:48.497Z,101942.16
2022-08-20T19:42:19.344Z,101935.13
2022-08-20T19:44:56.143Z,101935.56
2022-08-20T19:47:30.121Z,101940.28
2022-08-20T19:50:04.869Z,101936.44
2022-08-20T19:53:00.207Z,101940.78
2022-08-20T19:55:33.051Z,101944.03
2022-08-20T19:58:02.526Z,101935.78
2022-08-20T20:00:37.394Z,101934.22
2022-08-20T20:03:11.892Z,101931.50
2022-08-20T20:05:56.102Z,101925.63
2022-08-20T20:08:27.049Z,101919.00
2022-08-20T20:10:56.733Z,101921.84
2022-08-20T20:13:26.477Z,101923.06
2022-08-20T20:15:58.436Z,101922.34
2022-08-20T20:18:27.857Z,101926.38
2022-08-20T20:21:09.081Z,101926.00
2022-08-20T20:23:38.821Z,101927.22
2022-08-20T20:26:16.830Z,101919.38
2022-08-20T20:28:46.176Z,101921.38
2022-08-20T20:31:21.016Z,101916.72
2022-08-20T20:33:53.406Z,101927.00
2022-08-20T20:36:36.388Z,101918.38
2022-08-20T20:39:26.147Z,101907.81
2022-08-20T20:41:54.759Z,101913.75
2022-08-20T20:44:24.947Z,101913.84
2022-08-20T20:46:57.538Z,101912.31
2022-08-20T20:49:27.396Z,101913.13
2022-08-20T20:52:02.496Z,101914.75
2022-08-20T20:54:40.530Z,101913.22
2022-08-20T20:57:36.357Z,101922.66
2022-08-20T21:00:09.982Z,101917.97
2022-08-20T21:02:36.501Z,101911.69
2022-08-20T21:05:03.517Z,101919.97
2022-08-20T21:07:30.088Z,101911.38
2022-08-20T21:09:57.757Z,101907.44
2022-08-20T21:12:25.004Z,101909.41
2022-08-20T21:14:52.409Z,101911.41
2022-08-20T21:17:23.031Z,101917.72
2022-08-20T21:19:51.418Z,101918.50
2022-08-20T21:22:19.687Z,101915.78
2022-08-20T21:24:48.468Z,101913.06
2022-08-20T21:27:15.773Z,101913.06
2022-08-20T21:29:42.261Z,101917.41
2022-08-20T21:32:09.366Z,101919.78
2022-08-20T21:34:39.588Z,101915.09
2022-08-20T21:37:06.137Z,101908.44
2022-08-20T21:39:32.689Z,101915.53
2022-08-20T21:42:02.472Z,101912.41
2022-08-20T21:44:31.651Z,101924.22
2022-08-20T21:46:59.015Z,101912.81
2022-08-20T21:49:28.492Z,101912.44
2022-08-20T21:51:55.608Z,101912.88
2022-08-20T21:54:23.349Z,101919.56
2022-08-20T21:56:56.649Z,101917.97
2022-08-20T21:59:24.339Z,101921.16
2022-08-20T22:01:51.781Z,101916.81
2022-08-20T22:04:19.339Z,101917.25
2022-08-20T22:06:47.184Z,101922.75
2022-08-20T22:09:14.687Z,101912.13
2022-08-20T22:11:41.309Z,101913.34
2022-08-20T22:14:10.085Z,101908.66
2022-08-20T22:16:36.830Z,101914.53
2022-08-20T22:19:03.654Z,101900.03
2022-08-20T22:21:33.559Z,101899.25
2022-08-20T22:24:03.246Z,101893.78
2022-08-20T22:26:31.406Z,101897.28
2022-08-20T22:28:58.239Z,101893.00
2022-08-20T22:31:29.889Z,101890.25
2022-08-20T22:33:57.780Z,101895.78
2022-08-20T22:36:25.431Z,101888.72
2022-08-20T22:38:54.750Z,101891.09
2022-08-20T22:41:22.136Z,101884.00
2022-08-20T22:43:56.642Z,101884.41
2022-08-20T22:46:27.847Z,101879.69
2022-08-20T22:48:55.820Z,101878.91
2022-08-20T22:51:28.949Z,101880.88
2022-08-20T22:53:58.063Z,101886.00
2022-08-20T22:56:24.671Z,101883.63
2022-08-20T22:58:51.395Z,101878.13
2022-08-20T23:01:21.901Z,101881.28
2022-08-20T23:03:48.419Z,101884.03
2022-08-20T23:06:16.171Z,101881.69
2022-08-20T23:08:43.115Z,101876.59
2022-08-20T23:11:09.657Z,101871.09
2022-08-20T23:13:36.201Z,101875.41
2022-08-20T23:16:03.137Z,101872.69
2022-08-20T23:18:29.571Z,101868.78
2022-08-20T23:20:58.882Z,101866.41
2022-08-20T23:23:27.303Z,101872.28
2022-08-20T23:25:54.800Z,101872.69
2022-08-20T23:28:23.635Z,101870.72
2022-08-20T23:30:50.733Z,101875.81
2022-08-20T23:33:17.893Z,101862.50
2022-08-20T23:35:45.469Z,101873.50
2022-08-20T23:38:11.973Z,101870.72
2022-08-20T23:40:38.459Z,101869.19
2022-08-20T23:43:05.394Z,101858.22
2022-08-20T23:45:32.632Z,101859.75
2022-08-20T23:47:59.144Z,101854.28
2022-08-20T23:50:28.700Z,101849.19
2022-08-20T23:52:57.799Z,101850.75
2022-08-20T23:55:24.997Z,101858.22
2022-08-20T23:57:52.084Z,101854.28
